createdAt,value
2024-01-11T00:01:00.683Z,28.40
2024-01-11T00:03:31.016Z,31.03
2024-01-11T00:06:03.688Z,28.97
2024-01-11T00:08:38.881Z,30.40
2024-01-11T00:11:09.541Z,30.27
2024-01-11T00:13:42.597Z,27.70
2024-01-11T00:16:12.874Z,29.60
2024-01-11T00:18:43.151Z,28.90
2024-01-11T00:21:13.512Z,28.20
2024-01-11T00:23:51.199Z,27.10
2024-01-11T00:26:21.601Z,27.47
2024-01-11T00:28:51.955Z,26.33
2024-01-11T00:31:28.643Z,27.87
2024-01-11T00:33:59.098Z,26.90
2024-01-11T00:36:29.596Z,28.73
2024-01-11T00:39:04.888Z,28.23
2024-01-11T00:41:38.385Z,27.47
2024-01-11T00:44:08.892Z,29.13
2024-01-11T00:46:39.670Z,29.33
2024-01-11T00:49:10.658Z,30.90
2024-01-11T00:51:48.547Z,29.87
2024-01-11T00:54:21.567Z,29.87
2024-01-11T00:56:52.337Z,30.80
2024-01-11T00:59:28.301Z,28.60
2024-01-11T01:01:58.579Z,30.57
2024-01-11T01:04:28.982Z,29.37
2024-01-11T01:06:59.296Z,30.77
2024-01-11T01:09:32.203Z,28.73
2024-01-11T01:12:04.473Z,29.53
2024-01-11T01:14:34.982Z,29.53
2024-01-11T01:17:05.326Z,28.90
2024-01-11T01:19:36.087Z,28.87
2024-01-11T01:22:06.737Z,28.90
2024-01-11T01:24:39.996Z,28.50
2024-01-11T01:27:10.282Z,26.80
2024-01-11T01:29:43.456Z,28.10
2024-01-11T01:32:13.743Z,28.73
2024-01-11T01:34:46.503Z,28.13
2024-01-11T01:37:23.827Z,26.17
2024-01-11T01:39:58.888Z,28.70
2024-01-11T01:42:29.215Z,26.97
2024-01-11T01:45:06.806Z,27.47
2024-01-11T01:47:37.346Z,28.47
2024-01-11T01:50:09.940Z,28.23
2024-01-11T01:52:44.090Z,29.70
2024-01-11T01:55:22.006Z,27.57
2024-01-11T01:57:56.827Z,28.73
2024-01-11T02:00:28.109Z,30.60
2024-01-11T02:03:02.204Z,28.50
2024-01-11T02:05:35.063Z,28.30
2024-01-11T02:08:11.329Z,27.60
2024-01-11T02:10:44.412Z,27.83
2024-01-11T02:13:15.992Z,28.37
2024-01-11T02:15:46.354Z,28.13
2024-01-11T02:18:16.895Z,29.73
2024-01-11T02:20:47.438Z,28.20
2024-01-11T02:23:23.489Z,29.03
2024-01-11T02:25:56.404Z,28.87
2024-01-11T02:28:26.734Z,26.23
2024-01-11T02:31:00.166Z,27.97
2024-01-11T02:33:30.698Z,27.87
2024-01-11T02:36:04.876Z,30.07
2024-01-11T02:38:35.944Z,28.07
2024-01-11T02:41:22.964Z,29.17
2024-01-11T02:43:56.134Z,28.70
2024-01-11T02:46:26.434Z,28.47
2024-01-11T02:49:02.428Z,30.10
2024-01-11T02:51:32.804Z,27.97
2024-01-11T02:54:03.048Z,32.10
2024-01-11T02:56:35.995Z,32.10
2024-01-11T02:59:06.502Z,30.00
2024-01-11T03:01:36.886Z,30.57
2024-01-11T03:04:13.335Z,29.50
2024-01-11T03:06:43.619Z,29.40
2024-01-11T03:09:13.919Z,31.27
2024-01-11T03:11:49.845Z,29.33
2024-01-11T03:14:23.114Z,28.43
2024-01-11T03:16:53.499Z,29.80
2024-01-11T03:19:23.752Z,27.63
2024-01-11T03:21:54.344Z,29.53
2024-01-11T03:24:24.599Z,30.73
2024-01-11T03:26:57.502Z,30.27
2024-01-11T03:29:27.887Z,27.50
2024-01-11T03:31:58.258Z,28.47
2024-01-11T03:34:28.780Z,29.40
2024-01-11T03:36:59.216Z,28.33
2024-01-11T03:39:31.968Z,26.27
2024-01-11T03:42:05.293Z,27.97
2024-01-11T03:44:35.583Z,27.70
2024-01-11T03:47:06.043Z,28.40
2024-01-11T03:49:36.316Z,28.67
2024-01-11T03:52:07.610Z,29.00
2024-01-11T03:54:40.506Z,27.47
2024-01-11T03:57:13.402Z,26.03
2024-01-11T03:59:44.588Z,25.27
2024-01-11T04:02:17.128Z,26.70
2024-01-11T04:04:53.234Z,26.50
2024-01-11T04:07:28.400Z,26.60
2024-01-11T04:10:13.906Z,27.37
2024-01-11T04:12:49.451Z,24.70
2024-01-11T04:15:20.520Z,26.00
2024-01-11T04:17:59.718Z,26.10
2024-01-11T04:20:30.153Z,29.07
2024-01-11T04:23:07.744Z,28.47
2024-01-11T04:25:39.121Z,27.83
2024-01-11T04:28:14.233Z,29.37
2024-01-11T04:30:44.507Z,27.87
2024-01-11T04:33:15.120Z,24.10
2024-01-11T04:35:47.937Z,26.23
2024-01-11T04:38:36.375Z,24.30
2024-01-11T04:41:12.979Z,25.90
2024-01-11T04:43:56.748Z,26.20
2024-01-11T04:46:30.450Z,25.77
2024-01-11T04:49:02.891Z,26.83
2024-01-11T04:51:33.278Z,24.83
2024-01-11T04:54:03.513Z,26.23
2024-01-11T04:56:33.917Z,25.30
2024-01-11T04:59:06.939Z,27.67
2024-01-11T05:01:51.271Z,29.47
2024-01-11T05:04:21.537Z,76.03
2024-01-11T05:06:51.940Z,41.13
2024-01-11T05:09:22.191Z,36.00
2024-01-11T05:11:52.533Z,65.23
2024-01-11T05:14:30.514Z,130.70
2024-01-11T05:17:19.515Z,114.47
2024-01-11T05:19:49.806Z,56.17
2024-01-11T05:22:28.925Z,45.57
2024-01-11T05:24:59.194Z,36.77
2024-01-11T05:27:29.444Z,37.40
2024-01-11T05:30:04.919Z,29.23
2024-01-11T05:32:35.388Z,29.93
2024-01-11T05:35:05.840Z,42.57
2024-01-11T05:37:36.379Z,36.63
2024-01-11T05:40:12.568Z,30.17
2024-01-11T05:42:50.591Z,27.17
2024-01-11T05:45:32.108Z,29.63
2024-01-11T05:48:11.377Z,24.83
2024-01-11T05:50:41.903Z,27.53
2024-01-11T05:53:22.322Z,26.17
2024-01-11T05:55:55.200Z,25.83
2024-01-11T05:58:25.911Z,34.67
2024-01-11T06:01:01.715Z,28.93
2024-01-11T06:03:35.392Z,28.83
2024-01-11T06:06:07.598Z,26.77
2024-01-11T06:08:38.105Z,28.27
2024-01-11T06:11:09.273Z,27.87
2024-01-11T06:13:39.676Z,28.10
2024-01-11T06:16:13.627Z,28.83
2024-01-11T06:18:44.250Z,28.30
2024-01-11T06:21:14.820Z,28.37
2024-01-11T06:23:45.146Z,31.40
2024-01-11T06:26:15.541Z,29.37
2024-01-11T06:28:51.997Z,28.70
2024-01-11T06:31:24.909Z,27.67
2024-01-11T06:33:55.324Z,28.47
2024-01-11T06:36:26.030Z,26.33
2024-01-11T06:39:02.596Z,26.30
2024-01-11T06:41:43.360Z,27.93
2024-01-11T06:44:13.907Z,27.53
2024-01-11T06:46:46.789Z,27.87
2024-01-11T06:49:17.231Z,25.50
2024-01-11T06:51:49.736Z,28.00
2024-01-11T06:54:20.269Z,29.47
2024-01-11T06:56:53.080Z,29.27
2024-01-11T06:59:27.175Z,29.33
2024-01-11T07:02:04.093Z,28.80
2024-01-11T07:04:37.606Z,27.53
2024-01-11T07:07:14.164Z,27.97
2024-01-11T07:09:44.465Z,28.50
2024-01-11T07:12:14.895Z,27.90
2024-01-11T07:14:46.709Z,27.10
2024-01-11T07:17:19.673Z,26.73
2024-01-11T07:20:00.532Z,29.20
2024-01-11T07:22:30.843Z,27.13
2024-01-11T07:25:01.246Z,27.77
2024-01-11T07:27:31.517Z,30.30
2024-01-11T07:30:03.652Z,28.60
2024-01-11T07:32:36.611Z,28.60
2024-01-11T07:35:12.326Z,29.17
2024-01-11T07:37:51.178Z,28.00
2024-01-11T07:40:21.646Z,30.10
2024-01-11T07:42:51.918Z,28.30
2024-01-11T07:45:22.561Z,29.47
2024-01-11T07:48:10.058Z,28.50
2024-01-11T07:50:40.748Z,29.53
2024-01-11T07:53:11.099Z,30.40
2024-01-11T07:55:41.534Z,28.20
2024-01-11T07:58:13.345Z,27.43
2024-01-11T08:00:43.731Z,27.83
2024-01-11T08:03:16.704Z,28.23
2024-01-11T08:05:51.902Z,27.90
2024-01-11T08:08:23.350Z,26.53
2024-01-11T08:10:53.910Z,28.53
2024-01-11T08:13:24.560Z,25.27
2024-01-11T08:16:01.634Z,26.00
2024-01-11T08:18:35.045Z,26.90
2024-01-11T08:21:07.979Z,32.63
2024-01-11T08:23:38.416Z,42.23
2024-01-11T08:26:09.714Z,40.57
2024-01-11T08:28:40.060Z,35.90
2024-01-11T08:31:13.901Z,30.90
2024-01-11T08:33:46.970Z,29.03
2024-01-11T08:36:17.808Z,33.83
2024-01-11T08:38:48.217Z,38.77
2024-01-11T08:41:18.831Z,44.27
2024-01-11T08:43:55.676Z,35.67
2024-01-11T08:46:32.151Z,39.77
2024-01-11T08:49:06.552Z,39.20
2024-01-11T08:51:36.952Z,43.57
2024-01-11T08:54:12.709Z,60.00
2024-01-11T08:56:43.294Z,38.77
2024-01-11T08:59:16.897Z,40.67
2024-01-11T09:01:56.792Z,48.67
2024-01-11T09:04:35.914Z,30.03
2024-01-11T09:07:06.506Z,28.00
2024-01-11T09:09:44.919Z,30.00
2024-01-11T09:12:21.624Z,28.83
2024-01-11T09:14:51.954Z,26.50
2024-01-11T09:17:23.210Z,43.57
2024-01-11T09:19:56.333Z,24.40
2024-01-11T09:22:27.361Z,23.07
2024-01-11T09:24:57.604Z,23.13
2024-01-11T09:27:27.864Z,22.87
2024-01-11T09:30:00.972Z,22.13
2024-01-11T09:32:32.541Z,21.88
2024-01-11T09:35:11.967Z,22.02
2024-01-11T09:37:47.348Z,24.33
2024-01-11T09:40:18.416Z,29.00
2024-01-11T09:42:57.144Z,25.73
2024-01-11T09:45:33.062Z,24.90
2024-01-11T09:48:05.959Z,26.17
2024-01-11T09:50:40.793Z,25.40
2024-01-11T09:53:15.682Z,26.77
2024-01-11T09:55:53.040Z,27.02
2024-01-11T09:58:25.547Z,34.78
2024-01-11T10:01:00.740Z,27.20
2024-01-11T10:03:34.631Z,25.92
2024-01-11T10:06:12.756Z,26.92
2024-01-11T10:08:49.101Z,27.25
2024-01-11T10:11:21.953Z,27.98
2024-01-11T10:13:52.317Z,26.05
2024-01-11T10:16:22.600Z,28.15
2024-01-11T10:19:06.237Z,25.63
2024-01-11T10:21:45.215Z,25.75
2024-01-11T10:24:24.377Z,27.67
2024-01-11T10:27:05.108Z,24.90
2024-01-11T10:29:39.117Z,26.20
2024-01-11T10:32:12.663Z,28.15
2024-01-11T10:34:43.552Z,27.15
2024-01-11T10:37:18.386Z,28.13
2024-01-11T10:39:54.746Z,28.52
2024-01-11T10:42:32.359Z,26.33
2024-01-11T10:45:08.005Z,27.70
2024-01-11T10:47:41.758Z,28.25
2024-01-11T10:50:13.672Z,27.67
2024-01-11T10:53:08.265Z,28.05
2024-01-11T10:55:39.244Z,28.52
2024-01-11T10:58:13.929Z,30.80
2024-01-11T11:00:51.418Z,33.00
2024-01-11T11:03:26.338Z,29.08
2024-01-11T11:05:59.618Z,30.40
2024-01-11T11:08:32.852Z,35.67
2024-01-11T11:11:07.368Z,33.37
2024-01-11T11:13:42.438Z,27.53
2024-01-11T11:16:12.736Z,27.97
2024-01-11T11:18:45.625Z,29.27
2024-01-11T11:21:15.936Z,31.43
2024-01-11T11:23:48.878Z,28.87
2024-01-11T11:26:23.252Z,30.10
2024-01-11T11:28:53.636Z,29.67
2024-01-11T11:31:39.707Z,28.27
2024-01-11T11:34:10.262Z,27.83
2024-01-11T11:36:40.770Z,28.50
2024-01-11T11:39:15.404Z,29.00
2024-01-11T11:41:48.595Z,28.70
2024-01-11T11:44:20.309Z,29.43
2024-01-11T11:46:53.242Z,29.83
2024-01-11T11:49:23.743Z,30.30
2024-01-11T11:51:54.521Z,30.23
2024-01-11T11:54:30.725Z,30.10
2024-01-11T11:57:04.252Z,29.90
2024-01-11T11:59:35.112Z,34.97
2024-01-11T12:02:05.880Z,31.57
2024-01-11T12:04:38.687Z,38.70
2024-01-11T12:07:09.108Z,30.03
2024-01-11T12:09:42.241Z,50.00
2024-01-11T12:12:16.154Z,31.03
2024-01-11T12:14:50.805Z,29.43
2024-01-11T12:17:25.876Z,31.43
2024-01-11T12:19:57.447Z,31.03
2024-01-11T12:22:30.364Z,29.93
2024-01-11T12:25:05.999Z,28.73
2024-01-11T12:27:42.177Z,30.97
2024-01-11T12:30:18.344Z,32.07
2024-01-11T12:32:50.750Z,30.63
2024-01-11T12:35:25.415Z,30.73
2024-01-11T12:38:05.598Z,37.40
2024-01-11T12:40:41.556Z,36.33
2024-01-11T12:43:21.585Z,33.30
2024-01-11T12:45:52.189Z,34.20
2024-01-11T12:48:22.741Z,35.00
2024-01-11T12:51:02.881Z,34.57
2024-01-11T12:53:46.425Z,33.67
2024-01-11T12:56:20.135Z,33.20
2024-01-11T12:58:53.377Z,33.77
2024-01-11T13:01:27.307Z,34.00
2024-01-11T13:04:00.316Z,33.20
2024-01-11T13:06:33.502Z,36.57
2024-01-11T13:09:06.408Z,35.37
2024-01-11T13:11:39.344Z,36.07
2024-01-11T13:14:20.433Z,34.50
2024-01-11T13:16:55.911Z,35.77
2024-01-11T13:19:27.726Z,36.40
2024-01-11T13:21:58.324Z,36.50
2024-01-11T13:24:28.653Z,34.73
2024-01-11T13:27:01.635Z,34.33
2024-01-11T13:29:32.038Z,34.93
2024-01-11T13:32:07.790Z,35.43
2024-01-11T13:34:38.077Z,34.93
2024-01-11T13:37:08.387Z,35.63
2024-01-11T13:39:38.788Z,35.20
2024-01-11T13:42:17.255Z,33.70
2024-01-11T13:44:47.701Z,32.90
2024-01-11T13:47:18.031Z,36.07
2024-01-11T13:49:48.476Z,36.57
2024-01-11T13:52:24.814Z,36.00
2024-01-11T13:54:55.347Z,35.63
2024-01-11T13:57:28.257Z,34.30
2024-01-11T13:59:58.683Z,34.73
2024-01-11T14:02:31.763Z,33.73
2024-01-11T14:05:05.435Z,33.90
2024-01-11T14:07:35.810Z,34.53
2024-01-11T14:10:07.036Z,34.60
2024-01-11T14:12:40.429Z,34.17
2024-01-11T14:15:17.467Z,35.13
2024-01-11T14:17:57.308Z,34.87
2024-01-11T14:20:28.883Z,37.57
2024-01-11T14:22:59.921Z,36.73
2024-01-11T14:25:30.653Z,36.57
2024-01-11T14:28:05.374Z,41.50
2024-01-11T14:30:35.887Z,38.33
2024-01-11T14:33:09.462Z,38.63
2024-01-11T14:35:39.901Z,38.50
2024-01-11T14:38:10.269Z,39.67
2024-01-11T14:40:46.674Z,39.10
2024-01-11T14:43:21.783Z,38.03
2024-01-11T14:45:53.660Z,38.30
2024-01-11T14:48:25.986Z,38.37
2024-01-11T14:50:56.458Z,39.33
2024-01-11T14:53:26.914Z,39.03
2024-01-11T14:55:59.627Z,38.93
2024-01-11T14:58:32.927Z,38.33
2024-01-11T15:01:05.697Z,38.77
2024-01-11T15:03:36.039Z,39.43
2024-01-11T15:06:08.748Z,36.90
2024-01-11T15:08:39.316Z,41.57
2024-01-11T15:11:18.830Z,40.20
2024-01-11T15:13:51.797Z,46.93
2024-01-11T15:16:27.563Z,41.60
2024-01-11T15:18:57.934Z,42.07
2024-01-11T15:21:29.156Z,43.37
2024-01-11T15:24:00.538Z,45.53
2024-01-11T15:26:33.233Z,41.50
2024-01-11T15:29:07.096Z,44.47
2024-01-11T15:31:41.731Z,43.37
2024-01-11T15:34:12.334Z,40.80
2024-01-11T15:36:43.366Z,41.30
2024-01-11T15:39:25.030Z,43.20
2024-01-11T15:41:59.637Z,41.43
2024-01-11T15:44:35.817Z,42.10
2024-01-11T15:47:06.306Z,43.67
2024-01-11T15:49:37.058Z,40.33
2024-01-11T15:52:07.999Z,40.70
2024-01-11T15:54:40.807Z,40.27
2024-01-11T15:57:11.085Z,40.43
2024-01-11T15:59:43.978Z,41.40
2024-01-11T16:02:15.853Z,42.10
2024-01-11T16:04:46.706Z,40.13
2024-01-11T16:07:20.061Z,40.13
2024-01-11T16:09:53.307Z,41.53
2024-01-11T16:12:24.808Z,42.00
2024-01-11T16:14:59.426Z,42.30
2024-01-11T16:17:31.542Z,41.70
2024-01-11T16:20:02.584Z,42.30
2024-01-11T16:22:35.870Z,43.70
2024-01-11T16:25:06.898Z,43.40
2024-01-11T16:27:41.233Z,43.40
2024-01-11T16:30:17.527Z,41.83
2024-01-11T16:32:47.912Z,46.47
2024-01-11T16:35:21.589Z,51.33
2024-01-11T16:37:52.582Z,50.93
2024-01-11T16:40:23.130Z,48.60
2024-01-11T16:42:53.400Z,46.70
2024-01-11T16:45:30.041Z,44.90
2024-01-11T16:48:06.031Z,44.97
2024-01-11T16:50:36.902Z,43.70
2024-01-11T16:53:07.792Z,44.73
2024-01-11T16:55:38.056Z,43.87
2024-01-11T16:58:08.395Z,43.70
2024-01-11T17:00:41.358Z,43.30
2024-01-11T17:03:12.594Z,41.97
2024-01-11T17:05:51.837Z,41.97
2024-01-11T17:08:22.161Z,39.90
2024-01-11T17:10:55.794Z,39.07
2024-01-11T17:13:26.187Z,38.07
2024-01-11T17:16:01.645Z,37.67
2024-01-11T17:18:32.185Z,38.67
2024-01-11T17:21:02.845Z,39.20
2024-01-11T17:23:33.258Z,38.00
2024-01-11T17:26:05.790Z,38.60
2024-01-11T17:28:36.347Z,37.10
2024-01-11T17:31:12.200Z,40.10
2024-01-11T17:33:46.143Z,36.33
2024-01-11T17:36:18.035Z,36.80
2024-01-11T17:38:49.101Z,34.43
2024-01-11T17:41:19.583Z,35.33
2024-01-11T17:43:54.045Z,36.13
2024-01-11T17:46:33.327Z,35.50
2024-01-11T17:49:10.234Z,34.53
2024-01-11T17:51:40.912Z,35.73
2024-01-11T17:54:11.233Z,32.53
2024-01-11T17:56:44.346Z,31.83
2024-01-11T17:59:14.919Z,33.40
2024-01-11T18:01:47.879Z,32.00
2024-01-11T18:04:28.704Z,32.07
2024-01-11T18:06:59.109Z,36.27
2024-01-11T18:09:29.400Z,33.30
2024-01-11T18:11:59.715Z,31.67
2024-01-11T18:14:32.784Z,33.83
2024-01-11T18:17:15.576Z,30.47
2024-01-11T18:19:46.367Z,34.93
2024-01-11T18:22:25.282Z,41.00
2024-01-11T18:24:55.676Z,38.63
2024-01-11T18:27:28.845Z,35.07
2024-01-11T18:30:02.652Z,32.37
2024-01-11T18:32:35.939Z,35.00
2024-01-11T18:35:12.424Z,40.87
2024-01-11T18:37:42.699Z,34.23
2024-01-11T18:40:14.701Z,33.43
2024-01-11T18:42:47.627Z,33.83
2024-01-11T18:45:18.102Z,31.07
2024-01-11T18:47:53.133Z,29.83
2024-01-11T18:50:30.939Z,32.33
2024-01-11T18:53:04.577Z,31.83
2024-01-11T18:55:37.366Z,30.80
2024-01-11T18:58:11.061Z,29.27
2024-01-11T19:00:41.892Z,31.20
2024-01-11T19:03:25.406Z,30.47
2024-01-11T19:05:58.323Z,29.83
2024-01-11T19:08:33.590Z,29.83
2024-01-11T19:11:04.375Z,30.53
2024-01-11T19:13:34.751Z,31.87
2024-01-11T19:16:05.032Z,29.70
2024-01-11T19:18:40.273Z,33.00
2024-01-11T19:23:45.686Z,29.30
2024-01-11T19:26:16.048Z,31.90
2024-01-11T19:28:46.556Z,31.80
2024-01-11T19:31:19.409Z,31.40
2024-01-11T19:33:55.701Z,30.80
2024-01-11T19:36:26.027Z,36.00
2024-01-11T19:38:57.960Z,33.67
2024-01-11T19:41:33.257Z,31.77
2024-01-11T19:44:03.734Z,30.80
2024-01-11T19:46:35.591Z,34.90
2024-01-11T19:49:08.746Z,31.57
2024-01-11T19:51:39.169Z,31.73
2024-01-11T19:54:12.015Z,31.80
2024-01-11T19:56:42.383Z,34.37
2024-01-11T19:59:12.904Z,35.97
2024-01-11T20:01:46.506Z,34.10
2024-01-11T20:04:21.397Z,33.73
2024-01-11T20:06:51.794Z,34.00
2024-01-11T20:09:22.621Z,35.90
2024-01-11T20:11:58.544Z,37.23
2024-01-11T20:14:40.992Z,39.03
2024-01-11T20:17:14.639Z,39.70
2024-01-11T20:19:54.409Z,37.23
2024-01-11T20:22:27.379Z,47.07
2024-01-11T20:24:57.975Z,47.13
2024-01-11T20:27:28.259Z,42.63
2024-01-11T20:29:58.835Z,42.27
2024-01-11T20:32:29.446Z,41.33
2024-01-11T20:35:02.426Z,40.53
2024-01-11T20:37:34.995Z,39.63
2024-01-11T20:40:13.122Z,39.40
2024-01-11T20:42:45.666Z,36.33
2024-01-11T20:45:19.003Z,40.37
2024-01-11T20:47:49.460Z,37.67
2024-01-11T20:50:22.468Z,35.93
2024-01-11T20:52:52.835Z,38.90
2024-01-11T20:55:25.167Z,37.27
2024-01-11T20:57:55.574Z,32.90
2024-01-11T21:00:25.846Z,35.53
2024-01-11T21:02:57.190Z,33.90
2024-01-11T21:05:38.176Z,41.00
2024-01-11T21:08:11.193Z,32.43
2024-01-11T21:10:44.282Z,30.17
2024-01-11T21:13:16.515Z,32.60
2024-01-11T21:16:02.973Z,31.37
2024-01-11T21:18:33.569Z,33.37
2024-01-11T21:21:06.760Z,33.27
2024-01-11T21:23:37.300Z,31.17
2024-01-11T21:26:07.947Z,30.20
2024-01-11T21:28:41.024Z,29.70
2024-01-11T21:31:14.220Z,30.90
2024-01-11T21:33:47.093Z,31.07
2024-01-11T21:36:24.000Z,30.13
2024-01-11T21:38:56.592Z,31.63
2024-01-11T21:41:28.617Z,31.57
2024-01-11T21:44:00.250Z,31.60
2024-01-11T21:46:33.567Z,32.83
2024-01-11T21:49:07.655Z,33.83
2024-01-11T21:51:43.664Z,30.60
2024-01-11T21:54:16.803Z,31.00
2024-01-11T21:56:47.190Z,30.53
2024-01-11T21:59:17.493Z,31.57
2024-01-11T22:01:50.922Z,32.20
2024-01-11T22:04:24.038Z,30.60
2024-01-11T22:07:04.758Z,28.60
2024-01-11T22:09:35.614Z,30.47
2024-01-11T22:12:06.210Z,31.63
2024-01-11T22:14:45.595Z,29.63
2024-01-11T22:17:18.961Z,30.67
2024-01-11T22:19:49.584Z,31.13
2024-01-11T22:22:24.764Z,29.97
2024-01-11T22:24:57.691Z,29.33
2024-01-11T22:27:28.760Z,29.37
2024-01-11T22:30:01.317Z,28.03
2024-01-11T22:32:38.987Z,29.63
2024-01-11T22:35:13.106Z,30.43
2024-01-11T22:37:45.985Z,29.60
2024-01-11T22:40:17.946Z,31.37
2024-01-11T22:42:49.582Z,28.40
2024-01-11T22:45:20.054Z,29.47
2024-01-11T22:47:51.200Z,29.70
2024-01-11T22:50:21.526Z,30.07
2024-01-11T22:52:55.087Z,30.30
2024-01-11T22:55:25.395Z,29.50
2024-01-11T22:57:58.619Z,29.83
2024-01-11T23:00:30.226Z,29.20
2024-01-11T23:03:00.623Z,30.13
2024-01-11T23:05:31.100Z,30.30
2024-01-11T23:08:04.094Z,29.57
2024-01-11T23:10:36.745Z,31.07
2024-01-11T23:13:07.797Z,30.47
2024-01-11T23:15:38.121Z,33.30
2024-01-11T23:18:09.986Z,32.00
2024-01-11T23:20:40.496Z,31.70
2024-01-11T23:23:13.447Z,31.23
2024-01-11T23:25:43.697Z,31.90
2024-01-11T23:28:14.014Z,31.80
2024-01-11T23:30:44.260Z,33.07
2024-01-11T23:33:35.174Z,36.20
2024-01-11T23:36:05.552Z,32.90
2024-01-11T23:38:43.542Z,33.57
2024-01-11T23:41:13.914Z,31.67
2024-01-11T23:43:44.245Z,29.57
2024-01-11T23:46:14.517Z,30.53
2024-01-11T23:48:44.890Z,31.87
2024-01-11T23:51:15.264Z,29.10
2024-01-11T23:53:48.225Z,30.23
2024-01-11T23:56:18.599Z,29.93
2024-01-11T23:58:51.693Z,30.00
